Columbus, Ohio
Traffic Map
Current Weather Conditions
Columbus, Ohio
Overcast Light Rain
Overcast
13°
Feels Like: 13°
Wind Chill: 13° Ceiling: 3800
Heat Index: 13° Visibility: 4mi
Dew Point: 13° Wind: 3mph
Humidity: 100% Direction: 150° (SSE)
Pressure: 29.91in Gusts: 0mph
Raw Report DataKCMH 010351Z 15003KT 4SM -RA BR SCT007 BKN038 OVC095 13/13 A2991 RMK AO2 SLP129 P0003 T01280128
Traffic Incident Summary
Active as of:
Severity:
Category:
InformationThere was an issue retrieving the traffic information for this location. Please try a different location or try again shortly.
Advertisements
Track Severe Weather on mobile